sensor_id;sensor_type;location;lat;lon;timestamp;P1;durP1;ratioP1;P2;durP2;ratioP2
10509;SDS011;5303;53.266;10.410;2023-07-08T00:00:13;7.27;;;4.90;;
10509;SDS011;5303;53.266;10.410;2023-07-08T00:02:41;6.87;;;5.00;;
10509;SDS011;5303;53.266;10.410;2023-07-08T00:05:08;6.47;;;5.00;;
10509;SDS011;5303;53.266;10.410;2023-07-08T00:07:35;6.40;;;5.23;;
10509;SDS011;5303;53.266;10.410;2023-07-08T00:10:01;6.33;;;5.03;;
10509;SDS011;5303;53.266;10.410;2023-07-08T00:12:27;6.17;;;4.80;;
10509;SDS011;5303;53.266;10.410;2023-07-08T00:14:52;7.13;;;5.03;;
10509;SDS011;5303;53.266;10.410;2023-07-08T00:17:17;4.57;;;4.13;;
10509;SDS011;5303;53.266;10.410;2023-07-08T00:19:42;4.40;;;4.00;;
10509;SDS011;5303;53.266;10.410;2023-07-08T00:22:11;6.03;;;4.73;;
10509;SDS011;5303;53.266;10.410;2023-07-08T00:24:41;6.67;;;4.43;;
10509;SDS011;5303;53.266;10.410;2023-07-08T00:27:08;5.73;;;4.40;;
10509;SDS011;5303;53.266;10.410;2023-07-08T00:29:36;6.03;;;4.47;;
10509;SDS011;5303;53.266;10.410;2023-07-08T00:32:01;6.57;;;4.73;;
10509;SDS011;5303;53.266;10.410;2023-07-08T00:34:26;6.63;;;4.67;;
10509;SDS011;5303;53.266;10.410;2023-07-08T00:36:51;5.43;;;4.23;;
10509;SDS011;5303;53.266;10.410;2023-07-08T00:39:17;7.00;;;4.53;;
10509;SDS011;5303;53.266;10.410;2023-07-08T00:41:42;4.30;;;3.90;;
10509;SDS011;5303;53.266;10.410;2023-07-08T00:44:10;6.00;;;4.40;;
10509;SDS011;5303;53.266;10.410;2023-07-08T00:47:02;5.20;;;4.23;;
10509;SDS011;5303;53.266;10.410;2023-07-08T00:49:41;6.57;;;4.90;;
10509;SDS011;5303;53.266;10.410;2023-07-08T00:52:15;4.97;;;4.47;;
10509;SDS011;5303;53.266;10.410;2023-07-08T00:54:44;4.83;;;4.30;;
10509;SDS011;5303;53.266;10.410;2023-07-08T00:57:09;6.23;;;4.63;;
10509;SDS011;5303;53.266;10.410;2023-07-08T00:59:37;5.10;;;4.60;;
10509;SDS011;5303;53.266;10.410;2023-07-08T01:02:08;5.63;;;4.70;;
10509;SDS011;5303;53.266;10.410;2023-07-08T01:04:43;5.57;;;4.53;;
10509;SDS011;5303;53.266;10.410;2023-07-08T01:07:13;10.40;;;5.10;;
10509;SDS011;5303;53.266;10.410;2023-07-08T01:09:46;5.83;;;4.67;;
10509;SDS011;5303;53.266;10.410;2023-07-08T01:12:19;6.47;;;4.90;;
10509;SDS011;5303;53.266;10.410;2023-07-08T01:14:48;6.43;;;4.80;;
10509;SDS011;5303;53.266;10.410;2023-07-08T01:17:18;6.27;;;4.50;;
10509;SDS011;5303;53.266;10.410;2023-07-08T01:19:43;7.93;;;5.10;;
10509;SDS011;5303;53.266;10.410;2023-07-08T01:22:10;6.70;;;4.73;;
10509;SDS011;5303;53.266;10.410;2023-07-08T01:24:37;5.73;;;4.90;;
10509;SDS011;5303;53.266;10.410;2023-07-08T01:27:07;7.53;;;5.57;;
10509;SDS011;5303;53.266;10.410;2023-07-08T01:29:35;6.93;;;5.33;;
10509;SDS011;5303;53.266;10.410;2023-07-08T01:32:00;5.83;;;4.87;;
10509;SDS011;5303;53.266;10.410;2023-07-08T01:34:28;7.30;;;4.90;;
10509;SDS011;5303;53.266;10.410;2023-07-08T01:36:54;6.60;;;4.67;;
10509;SDS011;5303;53.266;10.410;2023-07-08T01:39:22;5.70;;;5.07;;
10509;SDS011;5303;53.266;10.410;2023-07-08T01:41:49;6.83;;;5.47;;
10509;SDS011;5303;53.266;10.410;2023-07-08T01:44:23;7.37;;;5.07;;
10509;SDS011;5303;53.266;10.410;2023-07-08T01:47:00;7.43;;;5.07;;
10509;SDS011;5303;53.266;10.410;2023-07-08T01:49:32;7.00;;;5.17;;
10509;SDS011;5303;53.266;10.410;2023-07-08T01:52:01;5.47;;;4.93;;
10509;SDS011;5303;53.266;10.410;2023-07-08T01:54:26;5.40;;;4.90;;
10509;SDS011;5303;53.266;10.410;2023-07-08T01:56:55;5.90;;;5.27;;
10509;SDS011;5303;53.266;10.410;2023-07-08T01:59:22;7.23;;;5.03;;
10509;SDS011;5303;53.266;10.410;2023-07-08T02:01:47;8.00;;;5.30;;
10509;SDS011;5303;53.266;10.410;2023-07-08T02:04:14;5.80;;;5.20;;
10509;SDS011;5303;53.266;10.410;2023-07-08T02:06:40;7.00;;;5.30;;
10509;SDS011;5303;53.266;10.410;2023-07-08T02:09:05;10.57;;;5.70;;
10509;SDS011;5303;53.266;10.410;2023-07-08T02:11:31;6.87;;;5.10;;
10509;SDS011;5303;53.266;10.410;2023-07-08T02:13:56;5.93;;;5.17;;
10509;SDS011;5303;53.266;10.410;2023-07-08T02:16:21;9.57;;;5.30;;
10509;SDS011;5303;53.266;10.410;2023-07-08T02:18:46;5.37;;;4.87;;
10509;SDS011;5303;53.266;10.410;2023-07-08T02:21:12;7.07;;;4.90;;
10509;SDS011;5303;53.266;10.410;2023-07-08T02:23:37;6.00;;;4.77;;
10509;SDS011;5303;53.266;10.410;2023-07-08T02:26:02;6.00;;;4.73;;
10509;SDS011;5303;53.266;10.410;2023-07-08T02:28:28;5.53;;;5.00;;
10509;SDS011;5303;53.266;10.410;2023-07-08T02:30:53;7.10;;;4.93;;
10509;SDS011;5303;53.266;10.410;2023-07-08T02:33:18;5.43;;;4.70;;
10509;SDS011;5303;53.266;10.410;2023-07-08T02:35:43;6.30;;;5.07;;
10509;SDS011;5303;53.266;10.410;2023-07-08T02:38:10;7.10;;;5.20;;
10509;SDS011;5303;53.266;10.410;2023-07-08T02:40:35;6.17;;;5.23;;
10509;SDS011;5303;53.266;10.410;2023-07-08T02:43:01;6.30;;;4.60;;
10509;SDS011;5303;53.266;10.410;2023-07-08T02:45:26;6.00;;;5.27;;
10509;SDS011;5303;53.266;10.410;2023-07-08T02:47:51;7.10;;;5.00;;
10509;SDS011;5303;53.266;10.410;2023-07-08T02:50:16;5.97;;;5.13;;
10509;SDS011;5303;53.266;10.410;2023-07-08T02:52:43;7.47;;;5.03;;
10509;SDS011;5303;53.266;10.410;2023-07-08T02:55:09;6.83;;;5.43;;
10509;SDS011;5303;53.266;10.410;2023-07-08T02:57:34;8.33;;;4.67;;
10509;SDS011;5303;53.266;10.410;2023-07-08T02:59:59;5.07;;;4.47;;
10509;SDS011;5303;53.266;10.410;2023-07-08T03:02:25;6.30;;;4.80;;
10509;SDS011;5303;53.266;10.410;2023-07-08T03:04:51;7.10;;;5.40;;
10509;SDS011;5303;53.266;10.410;2023-07-08T03:07:19;5.53;;;4.90;;
10509;SDS011;5303;53.266;10.410;2023-07-08T03:09:44;6.63;;;4.97;;
10509;SDS011;5303;53.266;10.410;2023-07-08T03:12:10;5.57;;;4.77;;
10509;SDS011;5303;53.266;10.410;2023-07-08T03:14:36;6.17;;;5.20;;
10509;SDS011;5303;53.266;10.410;2023-07-08T03:17:02;6.30;;;5.10;;
10509;SDS011;5303;53.266;10.410;2023-07-08T03:19:27;5.73;;;5.10;;
10509;SDS011;5303;53.266;10.410;2023-07-08T03:21:53;7.13;;;5.43;;
10509;SDS011;5303;53.266;10.410;2023-07-08T03:24:18;7.13;;;5.57;;
10509;SDS011;5303;53.266;10.410;2023-07-08T03:26:45;5.87;;;4.90;;
10509;SDS011;5303;53.266;10.410;2023-07-08T03:29:13;6.47;;;5.17;;
10509;SDS011;5303;53.266;10.410;2023-07-08T03:31:40;6.47;;;5.10;;
10509;SDS011;5303;53.266;10.410;2023-07-08T03:34:05;6.20;;;5.30;;
10509;SDS011;5303;53.266;10.410;2023-07-08T03:36:32;5.50;;;4.80;;
10509;SDS011;5303;53.266;10.410;2023-07-08T03:38:57;5.50;;;4.90;;
10509;SDS011;5303;53.266;10.410;2023-07-08T03:41:23;6.37;;;5.37;;
10509;SDS011;5303;53.266;10.410;2023-07-08T03:43:49;8.80;;;5.77;;
10509;SDS011;5303;53.266;10.410;2023-07-08T03:46:18;8.23;;;5.17;;
10509;SDS011;5303;53.266;10.410;2023-07-08T03:48:45;5.50;;;4.73;;
10509;SDS011;5303;53.266;10.410;2023-07-08T03:51:14;5.83;;;5.20;;
10509;SDS011;5303;53.266;10.410;2023-07-08T03:53:49;5.93;;;4.73;;
10509;SDS011;5303;53.266;10.410;2023-07-08T03:56:14;7.03;;;4.93;;
10509;SDS011;5303;53.266;10.410;2023-07-08T03:58:39;7.40;;;4.80;;
10509;SDS011;5303;53.266;10.410;2023-07-08T04:01:09;8.13;;;4.80;;
10509;SDS011;5303;53.266;10.410;2023-07-08T04:03:41;7.43;;;5.13;;
10509;SDS011;5303;53.266;10.410;2023-07-08T04:06:08;9.17;;;5.20;;
10509;SDS011;5303;53.266;10.410;2023-07-08T04:08:33;5.60;;;5.00;;
10509;SDS011;5303;53.266;10.410;2023-07-08T04:10:58;7.43;;;4.90;;
10509;SDS011;5303;53.266;10.410;2023-07-08T04:13:24;5.40;;;4.70;;
10509;SDS011;5303;53.266;10.410;2023-07-08T04:15:51;6.13;;;5.37;;
10509;SDS011;5303;53.266;10.410;2023-07-08T04:18:20;7.20;;;5.00;;
10509;SDS011;5303;53.266;10.410;2023-07-08T04:20:45;7.50;;;4.97;;
10509;SDS011;5303;53.266;10.410;2023-07-08T04:23:17;5.10;;;4.60;;
10509;SDS011;5303;53.266;10.410;2023-07-08T04:25:44;5.60;;;4.10;;
10509;SDS011;5303;53.266;10.410;2023-07-08T04:28:09;6.90;;;4.20;;
10509;SDS011;5303;53.266;10.410;2023-07-08T04:30:35;9.23;;;4.97;;
10509;SDS011;5303;53.266;10.410;2023-07-08T04:33:05;5.63;;;4.40;;
10509;SDS011;5303;53.266;10.410;2023-07-08T04:35:32;5.23;;;4.27;;
10509;SDS011;5303;53.266;10.410;2023-07-08T04:37:58;5.23;;;4.03;;
10509;SDS011;5303;53.266;10.410;2023-07-08T04:40:25;5.13;;;4.20;;
10509;SDS011;5303;53.266;10.410;2023-07-08T04:42:50;5.27;;;4.77;;
10509;SDS011;5303;53.266;10.410;2023-07-08T04:45:17;5.60;;;4.40;;
10509;SDS011;5303;53.266;10.410;2023-07-08T04:47:43;4.47;;;3.53;;
10509;SDS011;5303;53.266;10.410;2023-07-08T04:50:17;6.13;;;4.73;;
10509;SDS011;5303;53.266;10.410;2023-07-08T04:52:42;4.87;;;4.33;;
10509;SDS011;5303;53.266;10.410;2023-07-08T04:55:07;6.90;;;4.20;;
10509;SDS011;5303;53.266;10.410;2023-07-08T04:57:34;5.40;;;4.13;;
10509;SDS011;5303;53.266;10.410;2023-07-08T04:59:59;5.83;;;4.30;;
10509;SDS011;5303;53.266;10.410;2023-07-08T05:02:25;4.47;;;3.70;;
10509;SDS011;5303;53.266;10.410;2023-07-08T05:04:50;5.27;;;4.00;;
10509;SDS011;5303;53.266;10.410;2023-07-08T05:07:15;5.53;;;3.63;;
10509;SDS011;5303;53.266;10.410;2023-07-08T05:09:41;5.00;;;3.88;;
10509;SDS011;5303;53.266;10.410;2023-07-08T05:12:06;4.20;;;3.20;;
10509;SDS011;5303;53.266;10.410;2023-07-08T05:14:32;4.93;;;3.70;;
10509;SDS011;5303;53.266;10.410;2023-07-08T05:16:57;4.80;;;3.70;;
10509;SDS011;5303;53.266;10.410;2023-07-08T05:19:22;4.68;;;3.50;;
10509;SDS011;5303;53.266;10.410;2023-07-08T05:21:48;4.28;;;3.80;;
10509;SDS011;5303;53.266;10.410;2023-07-08T05:24:14;7.43;;;3.55;;
10509;SDS011;5303;53.266;10.410;2023-07-08T05:26:39;4.65;;;3.50;;
10509;SDS011;5303;53.266;10.410;2023-07-08T05:29:04;3.60;;;3.30;;
10509;SDS011;5303;53.266;10.410;2023-07-08T05:31:30;3.80;;;2.97;;
10509;SDS011;5303;53.266;10.410;2023-07-08T05:33:55;5.45;;;3.50;;
10509;SDS011;5303;53.266;10.410;2023-07-08T05:36:20;5.47;;;4.50;;
10509;SDS011;5303;53.266;10.410;2023-07-08T05:38:46;3.90;;;3.10;;
10509;SDS011;5303;53.266;10.410;2023-07-08T05:41:11;6.57;;;3.38;;
10509;SDS011;5303;53.266;10.410;2023-07-08T05:43:37;4.50;;;3.30;;
10509;SDS011;5303;53.266;10.410;2023-07-08T05:46:02;6.20;;;3.70;;
10509;SDS011;5303;53.266;10.410;2023-07-08T05:48:28;6.05;;;3.45;;
10509;SDS011;5303;53.266;10.410;2023-07-08T05:50:53;4.18;;;3.50;;
10509;SDS011;5303;53.266;10.410;2023-07-08T05:53:19;5.53;;;4.00;;
10509;SDS011;5303;53.266;10.410;2023-07-08T05:55:45;4.30;;;3.90;;
10509;SDS011;5303;53.266;10.410;2023-07-08T05:58:11;6.20;;;4.22;;
10509;SDS011;5303;53.266;10.410;2023-07-08T06:00:40;5.70;;;3.90;;
10509;SDS011;5303;53.266;10.410;2023-07-08T06:03:05;4.68;;;4.15;;
10509;SDS011;5303;53.266;10.410;2023-07-08T06:05:30;5.32;;;4.15;;
10509;SDS011;5303;53.266;10.410;2023-07-08T06:07:57;5.47;;;4.13;;
10509;SDS011;5303;53.266;10.410;2023-07-08T06:10:23;4.77;;;3.93;;
10509;SDS011;5303;53.266;10.410;2023-07-08T06:12:48;6.43;;;5.57;;
10509;SDS011;5303;53.266;10.410;2023-07-08T06:15:13;6.00;;;4.00;;
10509;SDS011;5303;53.266;10.410;2023-07-08T06:17:39;4.17;;;3.77;;
10509;SDS011;5303;53.266;10.410;2023-07-08T06:20:04;5.63;;;3.80;;
10509;SDS011;5303;53.266;10.410;2023-07-08T06:22:30;4.50;;;3.83;;
10509;SDS011;5303;53.266;10.410;2023-07-08T06:24:55;6.33;;;4.10;;
10509;SDS011;5303;53.266;10.410;2023-07-08T06:27:20;6.93;;;3.83;;
10509;SDS011;5303;53.266;10.410;2023-07-08T06:29:46;4.00;;;3.57;;
10509;SDS011;5303;53.266;10.410;2023-07-08T06:32:11;4.93;;;3.73;;
10509;SDS011;5303;53.266;10.410;2023-07-08T06:34:36;7.43;;;4.23;;
10509;SDS011;5303;53.266;10.410;2023-07-08T06:37:01;3.90;;;3.53;;
10509;SDS011;5303;53.266;10.410;2023-07-08T06:39:27;4.50;;;4.00;;
10509;SDS011;5303;53.266;10.410;2023-07-08T06:41:52;4.30;;;3.50;;
10509;SDS011;5303;53.266;10.410;2023-07-08T06:44:17;4.57;;;3.63;;
10509;SDS011;5303;53.266;10.410;2023-07-08T06:46:43;5.83;;;3.70;;
10509;SDS011;5303;53.266;10.410;2023-07-08T06:49:09;5.33;;;3.60;;
10509;SDS011;5303;53.266;10.410;2023-07-08T06:51:36;5.00;;;3.47;;
10509;SDS011;5303;53.266;10.410;2023-07-08T06:54:02;4.30;;;3.30;;
10509;SDS011;5303;53.266;10.410;2023-07-08T06:56:30;4.77;;;3.30;;
10509;SDS011;5303;53.266;10.410;2023-07-08T06:58:55;3.50;;;3.20;;
10509;SDS011;5303;53.266;10.410;2023-07-08T07:01:21;4.30;;;3.53;;
10509;SDS011;5303;53.266;10.410;2023-07-08T07:03:46;5.00;;;3.77;;
10509;SDS011;5303;53.266;10.410;2023-07-08T07:06:11;5.70;;;3.37;;
10509;SDS011;5303;53.266;10.410;2023-07-08T07:08:37;3.90;;;3.53;;
10509;SDS011;5303;53.266;10.410;2023-07-08T07:11:02;3.67;;;3.37;;
10509;SDS011;5303;53.266;10.410;2023-07-08T07:13:27;3.60;;;3.30;;
10509;SDS011;5303;53.266;10.410;2023-07-08T07:15:52;4.30;;;3.73;;
10509;SDS011;5303;53.266;10.410;2023-07-08T07:18:18;3.60;;;3.10;;
10509;SDS011;5303;53.266;10.410;2023-07-08T07:20:46;4.30;;;3.50;;
10509;SDS011;5303;53.266;10.410;2023-07-08T07:23:14;4.17;;;3.23;;
10509;SDS011;5303;53.266;10.410;2023-07-08T07:25:40;4.00;;;3.33;;
10509;SDS011;5303;53.266;10.410;2023-07-08T07:28:05;6.60;;;3.70;;
10509;SDS011;5303;53.266;10.410;2023-07-08T07:30:31;3.90;;;3.10;;
10509;SDS011;5303;53.266;10.410;2023-07-08T07:32:58;4.43;;;3.30;;
10509;SDS011;5303;53.266;10.410;2023-07-08T07:35:25;4.55;;;3.70;;
10509;SDS011;5303;53.266;10.410;2023-07-08T07:37:50;5.10;;;3.50;;
10509;SDS011;5303;53.266;10.410;2023-07-08T07:40:15;4.78;;;3.60;;
10509;SDS011;5303;53.266;10.410;2023-07-08T07:42:41;3.40;;;2.97;;
10509;SDS011;5303;53.266;10.410;2023-07-08T07:45:08;5.63;;;3.70;;
10509;SDS011;5303;53.266;10.410;2023-07-08T07:47:35;4.25;;;3.38;;
10509;SDS011;5303;53.266;10.410;2023-07-08T07:50:00;4.80;;;3.22;;
10509;SDS011;5303;53.266;10.410;2023-07-08T07:52:27;5.45;;;3.40;;
10509;SDS011;5303;53.266;10.410;2023-07-08T07:54:52;4.05;;;3.42;;
10509;SDS011;5303;53.266;10.410;2023-07-08T07:57:18;6.28;;;3.25;;
10509;SDS011;5303;53.266;10.410;2023-07-08T07:59:44;5.95;;;3.45;;
10509;SDS011;5303;53.266;10.410;2023-07-08T08:02:11;5.72;;;3.58;;
10509;SDS011;5303;53.266;10.410;2023-07-08T08:04:36;3.92;;;3.25;;
10509;SDS011;5303;53.266;10.410;2023-07-08T08:07:02;4.75;;;3.58;;
10509;SDS011;5303;53.266;10.410;2023-07-08T08:09:27;4.45;;;3.55;;
10509;SDS011;5303;53.266;10.410;2023-07-08T08:11:53;4.20;;;3.70;;
10509;SDS011;5303;53.266;10.410;2023-07-08T08:14:19;3.83;;;3.40;;
10509;SDS011;5303;53.266;10.410;2023-07-08T08:16:44;4.00;;;3.60;;
10509;SDS011;5303;53.266;10.410;2023-07-08T08:19:10;5.03;;;3.70;;
10509;SDS011;5303;53.266;10.410;2023-07-08T08:21:35;6.07;;;3.85;;
10509;SDS011;5303;53.266;10.410;2023-07-08T08:24:00;4.00;;;3.60;;
10509;SDS011;5303;53.266;10.410;2023-07-08T08:26:26;3.67;;;3.38;;
10509;SDS011;5303;53.266;10.410;2023-07-08T08:28:51;4.38;;;3.72;;
10509;SDS011;5303;53.266;10.410;2023-07-08T08:31:17;4.38;;;3.35;;
10509;SDS011;5303;53.266;10.410;2023-07-08T08:33:43;5.18;;;3.35;;
10509;SDS011;5303;53.266;10.410;2023-07-08T08:36:09;4.63;;;3.25;;
10509;SDS011;5303;53.266;10.410;2023-07-08T08:38:34;3.80;;;3.50;;
10509;SDS011;5303;53.266;10.410;2023-07-08T08:41:02;5.20;;;4.03;;
10509;SDS011;5303;53.266;10.410;2023-07-08T08:43:38;4.32;;;3.67;;
10509;SDS011;5303;53.266;10.410;2023-07-08T08:46:09;3.70;;;3.40;;
10509;SDS011;5303;53.266;10.410;2023-07-08T08:48:51;4.07;;;3.67;;
10509;SDS011;5303;53.266;10.410;2023-07-08T08:51:24;5.93;;;3.92;;
10509;SDS011;5303;53.266;10.410;2023-07-08T08:53:54;5.07;;;3.53;;
10509;SDS011;5303;53.266;10.410;2023-07-08T08:56:26;3.33;;;3.03;;
10509;SDS011;5303;53.266;10.410;2023-07-08T08:58:56;5.53;;;3.42;;
10509;SDS011;5303;53.266;10.410;2023-07-08T09:01:28;5.88;;;3.55;;
10509;SDS011;5303;53.266;10.410;2023-07-08T09:04:03;4.28;;;3.60;;
10509;SDS011;5303;53.266;10.410;2023-07-08T09:06:34;5.13;;;3.50;;
10509;SDS011;5303;53.266;10.410;2023-07-08T09:09:02;9.15;;;3.78;;
10509;SDS011;5303;53.266;10.410;2023-07-08T09:11:44;3.70;;;3.40;;
10509;SDS011;5303;53.266;10.410;2023-07-08T09:14:24;4.75;;;3.33;;
10509;SDS011;5303;53.266;10.410;2023-07-08T09:16:57;3.63;;;3.30;;
10509;SDS011;5303;53.266;10.410;2023-07-08T09:19:39;4.55;;;3.80;;
10509;SDS011;5303;53.266;10.410;2023-07-08T09:27:41;4.22;;;3.83;;
10509;SDS011;5303;53.266;10.410;2023-07-08T09:30:18;7.05;;;3.60;;
10509;SDS011;5303;53.266;10.410;2023-07-08T09:32:45;4.00;;;3.58;;
10509;SDS011;5303;53.266;10.410;2023-07-08T09:37:48;3.80;;;3.50;;
10509;SDS011;5303;53.266;10.410;2023-07-08T09:43:01;3.95;;;3.45;;
10509;SDS011;5303;53.266;10.410;2023-07-08T09:45:43;4.65;;;3.90;;
10509;SDS011;5303;53.266;10.410;2023-07-08T09:48:14;4.82;;;3.65;;
10509;SDS011;5303;53.266;10.410;2023-07-08T09:50:43;4.63;;;3.60;;
10509;SDS011;5303;53.266;10.410;2023-07-08T09:53:12;5.53;;;3.58;;
10509;SDS011;5303;53.266;10.410;2023-07-08T09:55:39;3.55;;;3.25;;
10509;SDS011;5303;53.266;10.410;2023-07-08T09:58:04;5.85;;;3.38;;
10509;SDS011;5303;53.266;10.410;2023-07-08T10:00:37;3.67;;;3.38;;
10509;SDS011;5303;53.266;10.410;2023-07-08T10:03:08;3.88;;;3.10;;
10509;SDS011;5303;53.266;10.410;2023-07-08T10:05:39;4.65;;;3.58;;
10509;SDS011;5303;53.266;10.410;2023-07-08T10:08:19;4.88;;;3.72;;
10509;SDS011;5303;53.266;10.410;2023-07-08T10:10:48;5.47;;;3.60;;
10509;SDS011;5303;53.266;10.410;2023-07-08T10:15:55;5.57;;;3.70;;
10509;SDS011;5303;53.266;10.410;2023-07-08T10:18:26;4.10;;;3.35;;
10509;SDS011;5303;53.266;10.410;2023-07-08T10:21:02;3.80;;;3.50;;
10509;SDS011;5303;53.266;10.410;2023-07-08T10:26:22;4.13;;;3.72;;
10509;SDS011;5303;53.266;10.410;2023-07-08T10:32:10;4.38;;;3.97;;
10509;SDS011;5303;53.266;10.410;2023-07-08T10:34:53;5.30;;;3.17;;
10509;SDS011;5303;53.266;10.410;2023-07-08T10:45:48;5.45;;;3.85;;
10509;SDS011;5303;53.266;10.410;2023-07-08T10:51:34;6.15;;;3.05;;
10509;SDS011;5303;53.266;10.410;2023-07-08T11:05:45;5.00;;;3.30;;
10509;SDS011;5303;53.266;10.410;2023-07-08T11:14:13;6.25;;;3.45;;
10509;SDS011;5303;53.266;10.410;2023-07-08T11:19:26;4.65;;;3.38;;
10509;SDS011;5303;53.266;10.410;2023-07-08T11:21:58;4.80;;;3.22;;
10509;SDS011;5303;53.266;10.410;2023-07-08T11:27:04;4.90;;;3.40;;
10509;SDS011;5303;53.266;10.410;2023-07-08T11:29:40;3.40;;;3.10;;
10509;SDS011;5303;53.266;10.410;2023-07-08T11:32:11;5.38;;;3.65;;
10509;SDS011;5303;53.266;10.410;2023-07-08T11:34:41;3.20;;;2.90;;
10509;SDS011;5303;53.266;10.410;2023-07-08T11:37:08;3.67;;;3.15;;
10509;SDS011;5303;53.266;10.410;2023-07-08T11:42:12;7.68;;;6.88;;
10509;SDS011;5303;53.266;10.410;2023-07-08T11:44:42;7.60;;;6.57;;
10509;SDS011;5303;53.266;10.410;2023-07-08T11:47:15;4.88;;;3.38;;
10509;SDS011;5303;53.266;10.410;2023-07-08T11:49:43;4.00;;;3.30;;
10509;SDS011;5303;53.266;10.410;2023-07-08T11:52:11;4.15;;;3.70;;
10509;SDS011;5303;53.266;10.410;2023-07-08T11:54:46;4.53;;;3.60;;
10509;SDS011;5303;53.266;10.410;2023-07-08T11:57:23;4.05;;;3.38;;
10509;SDS011;5303;53.266;10.410;2023-07-08T12:00:26;3.60;;;3.30;;
10509;SDS011;5303;53.266;10.410;2023-07-08T12:02:57;4.13;;;3.17;;
10509;SDS011;5303;53.266;10.410;2023-07-08T12:05:37;3.55;;;3.25;;
10509;SDS011;5303;53.266;10.410;2023-07-08T12:08:11;4.18;;;3.40;;
10509;SDS011;5303;53.266;10.410;2023-07-08T12:10:42;5.07;;;3.78;;
10509;SDS011;5303;53.266;10.410;2023-07-08T12:13:15;3.83;;;3.50;;
10509;SDS011;5303;53.266;10.410;2023-07-08T12:15:43;4.10;;;3.70;;
10509;SDS011;5303;53.266;10.410;2023-07-08T12:18:13;3.47;;;3.17;;
10509;SDS011;5303;53.266;10.410;2023-07-08T12:20:57;3.80;;;3.33;;
10509;SDS011;5303;53.266;10.410;2023-07-08T12:23:26;3.88;;;3.47;;
10509;SDS011;5303;53.266;10.410;2023-07-08T12:25:53;3.80;;;3.50;;
10509;SDS011;5303;53.266;10.410;2023-07-08T12:28:20;3.92;;;3.50;;
10509;SDS011;5303;53.266;10.410;2023-07-08T12:30:47;3.97;;;3.60;;
10509;SDS011;5303;53.266;10.410;2023-07-08T12:33:19;4.68;;;3.40;;
10509;SDS011;5303;53.266;10.410;2023-07-08T12:35:51;4.38;;;3.40;;
10509;SDS011;5303;53.266;10.410;2023-07-08T12:38:18;4.85;;;3.78;;
10509;SDS011;5303;53.266;10.410;2023-07-08T12:40:44;3.92;;;3.20;;
10509;SDS011;5303;53.266;10.410;2023-07-08T12:43:10;3.85;;;3.50;;
10509;SDS011;5303;53.266;10.410;2023-07-08T12:45:35;4.20;;;3.40;;
10509;SDS011;5303;53.266;10.410;2023-07-08T12:48:01;3.95;;;3.55;;
10509;SDS011;5303;53.266;10.410;2023-07-08T12:50:27;5.22;;;3.78;;
10509;SDS011;5303;53.266;10.410;2023-07-08T12:52:53;3.75;;;3.35;;
10509;SDS011;5303;53.266;10.410;2023-07-08T12:55:18;4.40;;;3.33;;
10509;SDS011;5303;53.266;10.410;2023-07-08T12:57:45;5.63;;;3.80;;
10509;SDS011;5303;53.266;10.410;2023-07-08T13:00:32;3.67;;;3.35;;
10509;SDS011;5303;53.266;10.410;2023-07-08T13:03:03;4.85;;;4.45;;
10509;SDS011;5303;53.266;10.410;2023-07-08T13:05:32;8.13;;;7.20;;
10509;SDS011;5303;53.266;10.410;2023-07-08T13:07:57;7.30;;;6.40;;
10509;SDS011;5303;53.266;10.410;2023-07-08T13:10:24;4.95;;;4.45;;
10509;SDS011;5303;53.266;10.410;2023-07-08T13:12:52;4.30;;;3.70;;
10509;SDS011;5303;53.266;10.410;2023-07-08T13:15:23;5.55;;;4.18;;
10509;SDS011;5303;53.266;10.410;2023-07-08T13:17:53;4.68;;;4.10;;
10509;SDS011;5303;53.266;10.410;2023-07-08T13:20:18;6.20;;;4.50;;
10509;SDS011;5303;53.266;10.410;2023-07-08T13:22:46;4.40;;;4.00;;
10509;SDS011;5303;53.266;10.410;2023-07-08T13:25:17;4.63;;;4.05;;
10509;SDS011;5303;53.266;10.410;2023-07-08T13:27:54;5.03;;;3.92;;
10509;SDS011;5303;53.266;10.410;2023-07-08T13:30:20;4.88;;;3.85;;
10509;SDS011;5303;53.266;10.410;2023-07-08T13:32:56;4.82;;;3.38;;
10509;SDS011;5303;53.266;10.410;2023-07-08T13:35:24;4.32;;;3.92;;
10509;SDS011;5303;53.266;10.410;2023-07-08T13:37:59;6.18;;;3.58;;
10509;SDS011;5303;53.266;10.410;2023-07-08T13:40:26;4.82;;;3.45;;
10509;SDS011;5303;53.266;10.410;2023-07-08T13:42:53;4.20;;;3.78;;
10509;SDS011;5303;53.266;10.410;2023-07-08T13:45:30;5.10;;;3.65;;
10509;SDS011;5303;53.266;10.410;2023-07-08T13:48:10;4.47;;;3.70;;
10509;SDS011;5303;53.266;10.410;2023-07-08T13:50:47;5.57;;;3.95;;
10509;SDS011;5303;53.266;10.410;2023-07-08T13:53:18;4.18;;;3.55;;
10509;SDS011;5303;53.266;10.410;2023-07-08T13:55:46;6.45;;;3.53;;
10509;SDS011;5303;53.266;10.410;2023-07-08T13:58:14;5.05;;;3.53;;
10509;SDS011;5303;53.266;10.410;2023-07-08T14:00:41;5.32;;;4.18;;
10509;SDS011;5303;53.266;10.410;2023-07-08T14:03:10;4.32;;;3.40;;
10509;SDS011;5303;53.266;10.410;2023-07-08T14:05:37;4.72;;;3.97;;
10509;SDS011;5303;53.266;10.410;2023-07-08T14:08:07;4.15;;;3.70;;
10509;SDS011;5303;53.266;10.410;2023-07-08T14:10:37;4.20;;;3.80;;
10509;SDS011;5303;53.266;10.410;2023-07-08T14:13:02;5.22;;;3.67;;
10509;SDS011;5303;53.266;10.410;2023-07-08T14:15:28;4.30;;;3.90;;
10509;SDS011;5303;53.266;10.410;2023-07-08T14:17:53;4.18;;;3.67;;
10509;SDS011;5303;53.266;10.410;2023-07-08T14:20:18;4.25;;;3.38;;
10509;SDS011;5303;53.266;10.410;2023-07-08T14:22:44;4.63;;;4.00;;
10509;SDS011;5303;53.266;10.410;2023-07-08T14:25:09;6.25;;;3.58;;
10509;SDS011;5303;53.266;10.410;2023-07-08T14:27:36;3.42;;;3.13;;
10509;SDS011;5303;53.266;10.410;2023-07-08T14:30:01;3.78;;;3.38;;
10509;SDS011;5303;53.266;10.410;2023-07-08T14:32:28;4.22;;;3.83;;
10509;SDS011;5303;53.266;10.410;2023-07-08T14:34:56;5.28;;;4.22;;
10509;SDS011;5303;53.266;10.410;2023-07-08T14:37:24;5.32;;;4.03;;
10509;SDS011;5303;53.266;10.410;2023-07-08T14:39:49;4.20;;;3.80;;
10509;SDS011;5303;53.266;10.410;2023-07-08T14:42:16;4.88;;;4.22;;
10509;SDS011;5303;53.266;10.410;2023-07-08T14:44:47;4.70;;;3.97;;
10509;SDS011;5303;53.266;10.410;2023-07-08T14:47:15;4.07;;;3.70;;
10509;SDS011;5303;53.266;10.410;2023-07-08T14:49:42;4.35;;;3.92;;
10509;SDS011;5303;53.266;10.410;2023-07-08T14:52:08;5.93;;;4.65;;
10509;SDS011;5303;53.266;10.410;2023-07-08T14:54:33;5.97;;;4.80;;
10509;SDS011;5303;53.266;10.410;2023-07-08T14:56:59;4.05;;;3.70;;
10509;SDS011;5303;53.266;10.410;2023-07-08T14:59:27;4.70;;;4.18;;
10509;SDS011;5303;53.266;10.410;2023-07-08T15:01:54;5.07;;;4.28;;
10509;SDS011;5303;53.266;10.410;2023-07-08T15:04:22;5.07;;;4.60;;
10509;SDS011;5303;53.266;10.410;2023-07-08T15:06:48;4.72;;;3.95;;
10509;SDS011;5303;53.266;10.410;2023-07-08T15:09:15;5.38;;;4.85;;
10509;SDS011;5303;53.266;10.410;2023-07-08T15:11:42;4.22;;;3.83;;
10509;SDS011;5303;53.266;10.410;2023-07-08T15:14:40;6.15;;;3.78;;
10509;SDS011;5303;53.266;10.410;2023-07-08T15:16:58;4.30;;;3.80;;
10509;SDS011;5303;53.266;10.410;2023-07-08T15:19:23;4.22;;;3.63;;
10509;SDS011;5303;53.266;10.410;2023-07-08T15:21:49;4.20;;;3.80;;
10509;SDS011;5303;53.266;10.410;2023-07-08T15:24:15;6.20;;;4.38;;
10509;SDS011;5303;53.266;10.410;2023-07-08T15:26:41;4.88;;;4.38;;
10509;SDS011;5303;53.266;10.410;2023-07-08T15:29:15;4.50;;;4.10;;
10509;SDS011;5303;53.266;10.410;2023-07-08T15:31:42;4.53;;;3.75;;
10509;SDS011;5303;53.266;10.410;2023-07-08T15:34:15;4.25;;;3.70;;
10509;SDS011;5303;53.266;10.410;2023-07-08T15:36:43;4.97;;;3.85;;
10509;SDS011;5303;53.266;10.410;2023-07-08T15:39:08;4.55;;;4.15;;
10509;SDS011;5303;53.266;10.410;2023-07-08T15:41:34;4.28;;;3.88;;
10509;SDS011;5303;53.266;10.410;2023-07-08T15:44:00;4.40;;;4.00;;
10509;SDS011;5303;53.266;10.410;2023-07-08T15:46:28;4.50;;;4.05;;
10509;SDS011;5303;53.266;10.410;2023-07-08T15:48:57;6.03;;;4.20;;